createdAt,value
2019-03-29T00:00:19.786Z,65.81
2019-03-29T00:01:10.362Z,65.83
2019-03-29T00:01:46.416Z,65.77
2019-03-29T00:02:23.285Z,65.92
2019-03-29T00:02:59.256Z,65.90
2019-03-29T00:03:35.258Z,66.03
2019-03-29T00:04:11.595Z,66.13
2019-03-29T00:04:47.553Z,66.20
2019-03-29T00:05:23.994Z,66.29
2019-03-29T00:05:59.935Z,66.31
2019-03-29T00:06:36.394Z,66.37
2019-03-29T00:07:13.736Z,66.37
2019-03-29T00:07:50.756Z,66.32
2019-03-29T00:08:27.168Z,66.34
2019-03-29T00:09:03.397Z,66.29
2019-03-29T00:09:39.774Z,66.16
2019-03-29T00:10:16.007Z,66.16
2019-03-29T00:10:53.189Z,66.09
2019-03-29T00:11:29.188Z,66.17
2019-03-29T00:12:05.243Z,66.21
2019-03-29T00:12:41.455Z,66.19
2019-03-29T00:13:17.921Z,66.21
2019-03-29T00:13:54.749Z,66.13
2019-03-29T00:14:30.758Z,66.14
2019-03-29T00:15:07.941Z,66.24
2019-03-29T00:15:43.991Z,66.38
2019-03-29T00:16:19.944Z,66.37
2019-03-29T00:16:55.910Z,66.49
2019-03-29T00:17:31.989Z,66.52
2019-03-29T00:18:10.330Z,66.50
2019-03-29T00:18:47.160Z,66.65
2019-03-29T00:19:23.109Z,66.88
2019-03-29T00:19:59.060Z,66.88
2019-03-29T00:20:35.011Z,66.69
2019-03-29T00:21:11.095Z,66.59
2019-03-29T00:21:47.142Z,66.60
2019-03-29T00:22:23.496Z,66.58
2019-03-29T00:22:59.529Z,66.61
2019-03-29T00:23:35.514Z,66.64
2019-03-29T00:24:11.898Z,66.40
2019-03-29T00:24:47.865Z,66.40
2019-03-29T00:25:24.099Z,66.74
2019-03-29T00:26:00.336Z,66.93
2019-03-29T00:26:36.509Z,66.86
2019-03-29T00:27:12.504Z,67.09
2019-03-29T00:27:48.555Z,67.09
2019-03-29T00:28:24.640Z,66.71
2019-03-29T00:29:00.584Z,66.71
2019-03-29T00:29:36.545Z,66.89
2019-03-29T00:30:12.668Z,66.72
2019-03-29T00:30:49.113Z,66.77
2019-03-29T00:31:25.180Z,66.81
2019-03-29T00:32:01.426Z,67.03
2019-03-29T00:32:37.568Z,67.01
2019-03-29T00:33:13.600Z,67.01
2019-03-29T00:33:50.079Z,67.30
2019-03-29T00:34:26.206Z,67.16
2019-03-29T00:35:02.274Z,67.16
2019-03-29T00:35:38.330Z,67.15
2019-03-29T00:36:14.344Z,67.00
2019-03-29T00:36:50.281Z,67.57
2019-03-29T00:37:26.226Z,67.57
2019-03-29T00:38:02.831Z,67.45
2019-03-29T00:38:39.277Z,67.45
2019-03-29T00:39:15.559Z,67.45
2019-03-29T00:39:51.785Z,67.45
2019-03-29T00:40:28.140Z,67.45
2019-03-29T00:41:04.200Z,67.45
2019-03-29T00:41:40.185Z,67.51
2019-03-29T00:42:17.040Z,67.44
2019-03-29T00:42:53.369Z,67.44
2019-03-29T00:43:29.362Z,67.96
2019-03-29T00:44:05.644Z,67.72
2019-03-29T00:44:41.883Z,67.94
2019-03-29T00:45:18.994Z,67.94
2019-03-29T00:45:55.462Z,67.99
2019-03-29T00:46:31.419Z,68.00
2019-03-29T00:47:07.689Z,68.18
2019-03-29T00:47:43.778Z,68.18
2019-03-29T00:48:20.041Z,67.74
2019-03-29T00:48:56.379Z,67.83
2019-03-29T00:49:32.736Z,67.83
2019-03-29T00:50:08.848Z,67.83
2019-03-29T00:50:44.799Z,68.00
2019-03-29T00:51:21.043Z,68.00
2019-03-29T00:51:56.984Z,68.40
2019-03-29T00:52:32.932Z,68.40
2019-03-29T00:53:09.136Z,68.42
2019-03-29T00:53:45.282Z,68.42
2019-03-29T00:54:21.333Z,68.64
2019-03-29T00:54:57.302Z,68.29
2019-03-29T00:55:33.348Z,68.29
2019-03-29T00:56:09.648Z,68.21
2019-03-29T00:56:45.980Z,68.26
2019-03-29T00:57:21.935Z,68.50
2019-03-29T00:57:58.351Z,68.54
2019-03-29T00:58:34.607Z,67.90
2019-03-29T00:59:10.618Z,67.90
2019-03-29T00:59:47.100Z,68.40
2019-03-29T01:00:23.256Z,68.37
2019-03-29T01:01:00.028Z,68.24
2019-03-29T01:01:36.036Z,68.45
2019-03-29T01:02:12.065Z,68.45
2019-03-29T01:02:48.411Z,68.56
2019-03-29T01:03:24.406Z,68.91
2019-03-29T01:04:00.343Z,68.91
2019-03-29T01:04:36.787Z,68.73
2019-03-29T01:05:13.191Z,68.73
2019-03-29T01:05:49.134Z,68.86
2019-03-29T01:06:25.414Z,68.86
2019-03-29T01:07:01.794Z,68.71
2019-03-29T01:07:37.755Z,68.71
2019-03-29T01:08:14.166Z,69.16
2019-03-29T01:08:50.150Z,69.16
2019-03-29T01:09:26.546Z,69.33
2019-03-29T01:10:03.314Z,69.37
2019-03-29T01:10:39.288Z,69.35
2019-03-29T01:11:15.322Z,69.59
2019-03-29T01:11:52.937Z,69.59
2019-03-29T01:12:29.549Z,69.69
2019-03-29T01:13:06.006Z,69.69
2019-03-29T01:13:42.100Z,69.43
2019-03-29T01:14:18.738Z,69.43
2019-03-29T01:14:54.710Z,69.47
2019-03-29T01:15:30.653Z,69.81
2019-03-29T01:16:06.617Z,69.68
2019-03-29T01:16:42.990Z,69.52
2019-03-29T01:17:20.111Z,69.65
2019-03-29T01:17:56.174Z,69.23
2019-03-29T01:18:32.153Z,69.75
2019-03-29T01:19:08.643Z,69.75
2019-03-29T01:19:45.017Z,69.23
2019-03-29T01:20:21.911Z,68.87
2019-03-29T01:20:58.178Z,68.87
2019-03-29T01:21:34.779Z,69.02
2019-03-29T01:22:11.065Z,69.02
2019-03-29T01:22:47.028Z,69.55
2019-03-29T01:23:24.107Z,69.43
2019-03-29T01:24:00.619Z,69.43
2019-03-29T01:24:36.887Z,69.35
2019-03-29T01:25:13.075Z,69.35
2019-03-29T01:25:49.063Z,69.16
2019-03-29T01:26:25.221Z,69.51
2019-03-29T01:27:01.271Z,69.51
2019-03-29T01:27:37.624Z,69.49
2019-03-29T01:28:13.620Z,69.58
2019-03-29T01:28:49.919Z,69.69
2019-03-29T01:29:25.872Z,69.68
2019-03-29T01:30:02.325Z,69.73
2019-03-29T01:30:38.328Z,70.03
2019-03-29T01:31:15.055Z,69.58
2019-03-29T01:31:52.568Z,69.58
2019-03-29T01:32:28.864Z,69.84
2019-03-29T01:33:05.236Z,69.84
2019-03-29T01:33:41.253Z,69.59
2019-03-29T01:34:17.379Z,69.90
2019-03-29T01:34:53.343Z,69.54
2019-03-29T01:35:29.294Z,69.70
2019-03-29T01:36:05.375Z,69.70
2019-03-29T01:36:41.465Z,69.86
2019-03-29T01:37:17.781Z,70.00
2019-03-29T01:37:54.321Z,70.18
2019-03-29T01:38:30.309Z,70.18
2019-03-29T01:39:07.344Z,69.83
2019-03-29T01:39:43.327Z,69.53
2019-03-29T01:40:19.287Z,69.64
2019-03-29T01:40:55.231Z,69.65
2019-03-29T01:41:31.950Z,69.72
2019-03-29T01:42:08.238Z,69.72
2019-03-29T01:42:44.945Z,69.97
2019-03-29T01:43:21.060Z,70.02
2019-03-29T01:43:57.133Z,70.01
2019-03-29T01:44:33.092Z,70.01
2019-03-29T01:45:09.901Z,69.58
2019-03-29T01:45:46.065Z,69.58
2019-03-29T01:46:22.170Z,69.73
2019-03-29T01:46:58.236Z,69.84
2019-03-29T01:47:34.225Z,69.80
2019-03-29T01:48:10.528Z,69.77
2019-03-29T01:48:46.528Z,69.76
2019-03-29T01:49:22.456Z,69.26
2019-03-29T01:49:59.180Z,69.63
2019-03-29T01:50:35.353Z,69.88
2019-03-29T01:51:11.381Z,69.88
2019-03-29T01:51:48.143Z,69.91
2019-03-29T01:52:24.093Z,69.97
2019-03-29T01:53:00.076Z,70.02
2019-03-29T01:53:36.124Z,69.91
2019-03-29T01:54:12.145Z,69.91
2019-03-29T01:54:48.324Z,70.07
2019-03-29T01:55:24.558Z,70.07
2019-03-29T01:56:00.962Z,70.06
2019-03-29T01:56:36.972Z,70.06
2019-03-29T01:57:13.204Z,70.15
2019-03-29T01:57:49.168Z,70.09
2019-03-29T01:58:25.927Z,70.28
2019-03-29T01:59:02.274Z,70.43
2019-03-29T01:59:38.237Z,70.67
2019-03-29T02:00:18.089Z,70.67
2019-03-29T02:00:54.066Z,70.79
2019-03-29T02:01:30.015Z,70.85
2019-03-29T02:02:05.969Z,70.53
2019-03-29T02:02:42.340Z,70.53
2019-03-29T02:03:18.322Z,70.82
2019-03-29T02:03:55.146Z,70.64
2019-03-29T02:04:31.137Z,70.64
2019-03-29T02:05:07.928Z,70.66
2019-03-29T02:05:44.765Z,70.76
2019-03-29T02:06:21.429Z,71.04
2019-03-29T02:06:57.389Z,71.04
2019-03-29T02:07:33.725Z,71.15
2019-03-29T02:08:10.454Z,71.16
2019-03-29T02:08:46.552Z,70.84
2019-03-29T02:09:22.527Z,70.84
2019-03-29T02:09:58.470Z,70.96
2019-03-29T02:10:34.769Z,70.84
2019-03-29T02:11:11.111Z,70.72
2019-03-29T02:11:47.101Z,70.84
2019-03-29T02:12:23.060Z,70.84
2019-03-29T02:12:59.222Z,70.65
2019-03-29T02:13:35.761Z,70.65
2019-03-29T02:14:11.804Z,71.05
2019-03-29T02:14:48.664Z,71.24
2019-03-29T02:15:24.614Z,71.01
2019-03-29T02:16:01.683Z,70.94
2019-03-29T02:16:37.658Z,71.11
2019-03-29T02:17:13.759Z,71.17
2019-03-29T02:17:50.616Z,71.17
2019-03-29T02:18:26.892Z,71.42
2019-03-29T02:19:03.312Z,71.58
2019-03-29T02:19:39.370Z,71.74
2019-03-29T02:20:15.770Z,72.30
2019-03-29T02:20:51.980Z,72.30
2019-03-29T02:21:28.335Z,72.11
2019-03-29T02:22:04.801Z,72.20
2019-03-29T02:22:41.057Z,72.36
2019-03-29T02:23:17.231Z,72.36
2019-03-29T02:23:53.926Z,72.46
2019-03-29T02:24:30.281Z,72.16
2019-03-29T02:25:07.330Z,72.16
2019-03-29T02:25:43.371Z,72.46
2019-03-29T02:26:19.655Z,72.64
2019-03-29T02:26:56.970Z,72.64
2019-03-29T02:27:32.921Z,72.52
2019-03-29T02:28:08.985Z,72.53
2019-03-29T02:28:45.341Z,72.59
2019-03-29T02:29:21.680Z,72.62
2019-03-29T02:29:57.928Z,72.62
2019-03-29T02:30:33.884Z,72.30
2019-03-29T02:31:09.863Z,72.30
2019-03-29T02:31:45.827Z,72.31
2019-03-29T02:32:22.144Z,72.25
2019-03-29T02:32:58.096Z,72.30
2019-03-29T02:33:34.068Z,72.41
2019-03-29T02:34:10.167Z,72.25
2019-03-29T02:34:46.662Z,72.25
2019-03-29T02:35:22.638Z,72.23
2019-03-29T02:35:59.735Z,72.15
2019-03-29T02:36:35.688Z,71.98
2019-03-29T02:37:12.012Z,71.65
2019-03-29T02:37:48.391Z,71.64
2019-03-29T02:38:24.472Z,71.73
2019-03-29T02:39:00.469Z,71.73
2019-03-29T02:39:37.435Z,71.76
2019-03-29T02:40:13.618Z,71.92
2019-03-29T02:40:51.069Z,72.46
2019-03-29T02:41:27.875Z,72.39
2019-03-29T02:42:03.848Z,72.53
2019-03-29T02:42:39.824Z,72.53
2019-03-29T02:43:15.824Z,72.14
2019-03-29T02:43:51.824Z,72.14
2019-03-29T02:44:27.765Z,72.42
2019-03-29T02:45:04.644Z,72.04
2019-03-29T02:45:40.911Z,72.14
2019-03-29T02:46:16.926Z,72.14
2019-03-29T02:46:53.852Z,72.22
2019-03-29T02:47:30.201Z,72.16
2019-03-29T02:48:06.657Z,72.09
2019-03-29T02:48:44.443Z,71.99
2019-03-29T02:49:20.378Z,72.06
2019-03-29T02:49:57.037Z,72.30
2019-03-29T02:50:33.882Z,72.25
2019-03-29T02:51:09.849Z,72.07
2019-03-29T02:51:45.799Z,72.20
2019-03-29T02:52:21.757Z,72.20
2019-03-29T02:52:57.724Z,72.52
2019-03-29T02:53:33.716Z,72.52
2019-03-29T02:54:09.766Z,72.37
2019-03-29T02:54:46.945Z,72.51
2019-03-29T02:55:23.047Z,72.59
2019-03-29T02:55:59.331Z,72.69
2019-03-29T02:56:35.408Z,72.75
2019-03-29T02:57:11.413Z,72.75
2019-03-29T02:57:47.386Z,72.65
2019-03-29T02:58:23.655Z,72.65
2019-03-29T02:58:59.637Z,73.06
2019-03-29T02:59:35.598Z,73.06
2019-03-29T03:00:12.640Z,72.95
2019-03-29T03:00:48.794Z,72.95
2019-03-29T03:01:25.139Z,72.83
2019-03-29T03:02:01.525Z,72.82
2019-03-29T03:02:37.601Z,72.73
2019-03-29T03:03:13.989Z,72.73
2019-03-29T03:03:49.999Z,72.76
2019-03-29T03:04:25.975Z,72.81
2019-03-29T03:05:02.652Z,72.89
2019-03-29T03:05:38.741Z,72.89
2019-03-29T03:06:14.881Z,73.10
2019-03-29T03:06:50.937Z,73.10
2019-03-29T03:07:27.687Z,73.04
2019-03-29T03:08:03.759Z,73.04
2019-03-29T03:08:40.116Z,73.06
2019-03-29T03:09:16.130Z,72.98
2019-03-29T03:09:52.388Z,73.01
2019-03-29T03:10:28.431Z,73.05
2019-03-29T03:11:04.865Z,72.94
2019-03-29T03:11:41.131Z,73.01
2019-03-29T03:12:18.414Z,73.17
2019-03-29T03:12:54.361Z,72.90
2019-03-29T03:13:30.324Z,72.93
2019-03-29T03:14:06.975Z,73.03
2019-03-29T03:14:42.953Z,73.07
2019-03-29T03:15:18.920Z,73.17
2019-03-29T03:15:55.230Z,73.17
2019-03-29T03:16:31.215Z,73.12
2019-03-29T03:17:07.282Z,73.23
2019-03-29T03:17:43.347Z,73.39
2019-03-29T03:18:19.398Z,73.49
2019-03-29T03:18:55.349Z,73.60
2019-03-29T03:19:31.802Z,73.62
2019-03-29T03:20:09.717Z,73.64
2019-03-29T03:20:47.096Z,73.61
2019-03-29T03:21:23.067Z,73.61
2019-03-29T03:22:00.582Z,73.69
2019-03-29T03:22:36.656Z,73.80
2019-03-29T03:23:12.633Z,73.58
2019-03-29T03:23:48.844Z,73.53
2019-03-29T03:24:25.097Z,73.88
2019-03-29T03:25:01.682Z,73.88
2019-03-29T03:25:37.649Z,73.84
2019-03-29T03:26:13.916Z,73.89
2019-03-29T03:26:49.869Z,73.92
2019-03-29T03:27:26.201Z,73.65
2019-03-29T03:28:02.179Z,73.65
2019-03-29T03:28:38.142Z,74.04
2019-03-29T03:29:14.215Z,74.06
2019-03-29T03:29:50.163Z,74.09
2019-03-29T03:30:26.132Z,74.16
2019-03-29T03:31:02.442Z,74.16
2019-03-29T03:31:38.465Z,74.17
2019-03-29T03:32:14.557Z,74.10
2019-03-29T03:32:50.639Z,74.40
2019-03-29T03:33:26.600Z,73.79
2019-03-29T03:34:02.952Z,73.79
2019-03-29T03:34:38.927Z,74.05
2019-03-29T03:35:14.995Z,74.04
2019-03-29T03:35:50.972Z,74.18
2019-03-29T03:36:27.370Z,74.17
2019-03-29T03:37:03.737Z,74.06
2019-03-29T03:37:39.949Z,74.01
2019-03-29T03:38:16.022Z,74.06
2019-03-29T03:38:52.002Z,74.20
2019-03-29T03:39:32.205Z,74.24
2019-03-29T03:40:06.635Z,74.22
2019-03-29T03:40:42.764Z,74.24
2019-03-29T03:41:18.745Z,74.26
2019-03-29T03:41:55.167Z,74.19
2019-03-29T03:42:31.454Z,74.19
2019-03-29T03:43:07.459Z,74.30
2019-03-29T03:43:43.450Z,74.40
2019-03-29T03:44:19.414Z,74.12
2019-03-29T03:44:55.858Z,74.12
2019-03-29T03:45:31.921Z,74.16
2019-03-29T03:46:08.430Z,74.06
2019-03-29T03:46:44.428Z,74.12
2019-03-29T03:47:20.399Z,74.28
2019-03-29T03:47:56.388Z,74.32
2019-03-29T03:48:32.438Z,74.34
2019-03-29T03:49:08.504Z,74.34
2019-03-29T03:49:44.752Z,74.42
2019-03-29T03:50:43.251Z,74.42
2019-03-29T03:51:36.815Z,74.45
2019-03-29T03:52:31.163Z,74.38
2019-03-29T03:53:24.846Z,74.48
2019-03-29T03:54:19.173Z,74.60
2019-03-29T03:55:12.397Z,74.54
2019-03-29T03:56:06.888Z,74.54
2019-03-29T03:57:01.052Z,74.69
2019-03-29T03:57:57.773Z,74.62
2019-03-29T03:58:50.177Z,74.58
2019-03-29T03:59:44.577Z,74.69
2019-03-29T04:00:54.214Z,74.67
2019-03-29T04:01:47.867Z,74.55
2019-03-29T04:02:42.324Z,74.50
2019-03-29T04:03:35.874Z,74.61
2019-03-29T04:04:29.733Z,74.65
2019-03-29T04:05:23.283Z,74.83
2019-03-29T04:06:16.330Z,74.97
2019-03-29T04:07:09.917Z,75.11
2019-03-29T04:08:03.685Z,75.26
2019-03-29T04:08:57.686Z,75.12
2019-03-29T04:09:51.194Z,74.86
2019-03-29T04:10:45.339Z,74.74
2019-03-29T04:11:39.381Z,74.89
2019-03-29T04:12:33.701Z,74.92
2019-03-29T04:13:27.635Z,75.03
2019-03-29T04:14:21.417Z,75.00
2019-03-29T04:15:15.782Z,75.21
2019-03-29T04:16:09.483Z,75.42
2019-03-29T04:17:03.067Z,75.45
2019-03-29T04:17:57.652Z,75.44
2019-03-29T04:18:51.327Z,75.25
2019-03-29T04:19:45.144Z,75.23
2019-03-29T04:20:38.913Z,75.44
2019-03-29T04:21:32.463Z,75.49
2019-03-29T04:22:26.269Z,75.52
2019-03-29T04:23:20.659Z,75.56
2019-03-29T04:24:14.215Z,75.46
2019-03-29T04:25:08.064Z,75.40
2019-03-29T04:26:01.616Z,75.46
2019-03-29T04:26:55.491Z,75.33
2019-03-29T04:27:49.157Z,75.46
2019-03-29T04:28:43.419Z,75.64
2019-03-29T04:29:37.215Z,75.76
2019-03-29T04:30:31.014Z,75.68
2019-03-29T04:31:24.510Z,75.57
2019-03-29T04:32:18.456Z,75.48
2019-03-29T04:33:12.096Z,75.50
2019-03-29T04:34:06.152Z,75.58
2019-03-29T04:34:59.889Z,75.59
2019-03-29T04:35:53.656Z,75.47
2019-03-29T04:36:47.325Z,75.51
2019-03-29T04:37:41.895Z,75.59
2019-03-29T04:38:36.014Z,75.60
2019-03-29T04:39:29.546Z,75.77
2019-03-29T04:40:23.087Z,75.79
2019-03-29T04:41:17.021Z,75.65
2019-03-29T04:42:11.984Z,75.62
2019-03-29T04:43:05.866Z,75.73
2019-03-29T04:43:59.470Z,75.86
2019-03-29T04:44:53.124Z,76.00
2019-03-29T04:45:46.597Z,75.97
2019-03-29T04:46:40.729Z,75.89
2019-03-29T04:47:34.606Z,75.80
2019-03-29T04:48:28.838Z,75.80
2019-03-29T04:49:22.947Z,75.72
2019-03-29T04:50:16.515Z,75.66
2019-03-29T04:51:09.929Z,75.63
2019-03-29T04:52:04.252Z,75.71
2019-03-29T04:52:58.330Z,75.71
2019-03-29T04:53:52.692Z,75.92
2019-03-29T04:54:46.474Z,76.04
2019-03-29T04:55:40.464Z,76.18
2019-03-29T04:56:34.476Z,76.38
2019-03-29T04:57:28.011Z,76.57
2019-03-29T04:58:22.309Z,76.57
2019-03-29T04:59:16.066Z,76.53
2019-03-29T05:00:10.328Z,76.55
2019-03-29T05:01:04.740Z,76.56
2019-03-29T05:01:58.027Z,76.54
2019-03-29T05:02:51.652Z,76.55
2019-03-29T05:03:45.253Z,76.58
2019-03-29T05:04:38.818Z,76.59
2019-03-29T05:05:32.407Z,76.53
2019-03-29T05:06:25.428Z,76.52
2019-03-29T05:07:19.220Z,76.20
2019-03-29T05:08:12.574Z,76.40
2019-03-29T05:09:08.074Z,76.40
2019-03-29T05:10:01.832Z,76.65
2019-03-29T05:10:55.304Z,76.82
2019-03-29T05:11:48.973Z,76.80
2019-03-29T05:12:42.655Z,76.78
2019-03-29T05:13:36.371Z,76.82
2019-03-29T05:14:30.222Z,76.87
2019-03-29T05:15:23.746Z,76.92
2019-03-29T05:16:17.341Z,76.92
2019-03-29T05:17:11.236Z,76.78
2019-03-29T05:18:05.033Z,76.85
2019-03-29T05:18:59.654Z,76.89
2019-03-29T05:19:53.816Z,76.90
2019-03-29T05:20:46.974Z,76.83
2019-03-29T05:21:40.830Z,76.69
2019-03-29T05:22:34.178Z,76.46
2019-03-29T05:23:27.220Z,76.80
2019-03-29T05:24:21.009Z,76.80
2019-03-29T05:25:14.040Z,76.71
2019-03-29T05:26:07.525Z,76.71
2019-03-29T05:27:01.264Z,76.78
2019-03-29T05:27:54.531Z,76.87
2019-03-29T05:28:48.176Z,76.89
2019-03-29T05:29:41.239Z,76.82
2019-03-29T05:30:35.008Z,76.69
2019-03-29T05:31:28.719Z,76.63
2019-03-29T05:32:21.675Z,76.52
2019-03-29T05:33:15.486Z,76.52
2019-03-29T05:34:09.079Z,76.51
2019-03-29T05:35:02.067Z,76.52
2019-03-29T05:35:55.601Z,76.55
2019-03-29T05:36:49.230Z,76.36
2019-03-29T05:37:42.668Z,76.23
2019-03-29T05:38:36.292Z,76.17
2019-03-29T05:39:30.024Z,76.00
2019-03-29T05:40:34.257Z,76.11
2019-03-29T05:41:18.636Z,76.17
2019-03-29T05:42:12.478Z,76.15
2019-03-29T05:43:06.325Z,76.12
2019-03-29T05:43:59.779Z,76.14
2019-03-29T05:44:53.441Z,76.16
2019-03-29T05:45:47.578Z,76.08
2019-03-29T05:46:41.179Z,75.98
2019-03-29T05:47:35.282Z,75.82
2019-03-29T05:48:28.805Z,75.76
2019-03-29T05:49:22.145Z,75.36
2019-03-29T05:50:16.330Z,75.14
2019-03-29T05:51:09.703Z,75.44
2019-03-29T05:52:03.308Z,75.44
2019-03-29T05:52:56.450Z,75.50
2019-03-29T05:53:50.900Z,75.32
2019-03-29T05:54:44.559Z,75.36
2019-03-29T05:55:38.485Z,75.34
2019-03-29T05:56:32.241Z,75.47
2019-03-29T05:57:25.458Z,75.38
2019-03-29T05:58:18.878Z,75.29
2019-03-29T05:59:12.596Z,75.36
2019-03-29T06:00:09.246Z,75.40
2019-03-29T06:01:02.645Z,75.40
2019-03-29T06:01:56.515Z,75.40
2019-03-29T06:02:49.596Z,75.37
2019-03-29T06:03:43.396Z,75.23
2019-03-29T06:04:37.306Z,74.82
2019-03-29T06:05:30.714Z,74.76
2019-03-29T06:06:24.420Z,74.34
2019-03-29T06:07:18.373Z,74.38
2019-03-29T06:08:12.318Z,74.38
2019-03-29T06:09:07.254Z,73.63
2019-03-29T06:10:01.148Z,73.63
2019-03-29T06:10:55.159Z,73.43
2019-03-29T06:11:49.156Z,73.31
2019-03-29T06:12:42.922Z,74.02
2019-03-29T06:13:36.784Z,74.02
2019-03-29T06:14:30.274Z,74.11
2019-03-29T06:15:24.269Z,73.80
2019-03-29T06:16:17.962Z,73.69
2019-03-29T06:17:11.440Z,73.90
2019-03-29T06:18:05.456Z,74.29
2019-03-29T06:18:59.552Z,73.82
2019-03-29T06:19:52.905Z,73.72
2019-03-29T06:20:46.300Z,73.72
2019-03-29T06:21:41.650Z,73.28
2019-03-29T06:22:35.102Z,73.28
2019-03-29T06:23:28.955Z,73.23
2019-03-29T06:24:22.195Z,73.41
2019-03-29T06:25:15.814Z,73.52
2019-03-29T06:26:09.602Z,73.65
2019-03-29T06:27:03.892Z,73.72
2019-03-29T06:27:57.843Z,73.73
2019-03-29T06:28:51.628Z,73.69
2019-03-29T06:29:45.686Z,73.61
2019-03-29T06:30:39.420Z,73.48
2019-03-29T06:31:32.977Z,73.07
2019-03-29T06:32:27.187Z,72.17
2019-03-29T06:33:20.842Z,72.38
2019-03-29T06:34:14.568Z,72.38
2019-03-29T06:35:08.698Z,72.08
2019-03-29T06:36:03.018Z,72.24
2019-03-29T06:36:58.887Z,72.48
2019-03-29T06:37:53.157Z,72.48
2019-03-29T06:38:49.910Z,72.55
2019-03-29T06:39:43.978Z,72.32
2019-03-29T06:40:37.884Z,71.19
2019-03-29T06:41:32.779Z,71.19
2019-03-29T06:42:26.893Z,71.31
2019-03-29T06:43:20.682Z,71.31
2019-03-29T06:44:14.310Z,70.69
2019-03-29T06:45:08.613Z,70.75
2019-03-29T06:46:03.726Z,71.06
2019-03-29T06:46:57.298Z,71.06
2019-03-29T06:47:51.204Z,70.82
2019-03-29T06:48:44.790Z,70.55
2019-03-29T06:49:38.608Z,70.55
2019-03-29T06:50:32.670Z,70.35
2019-03-29T06:51:26.743Z,70.04
2019-03-29T06:52:20.861Z,70.02
2019-03-29T06:53:14.870Z,70.02
2019-03-29T06:54:08.531Z,70.05
2019-03-29T06:55:03.576Z,69.95
2019-03-29T06:55:59.352Z,69.42
2019-03-29T06:56:52.633Z,70.08
2019-03-29T06:57:46.521Z,70.08
2019-03-29T06:58:40.234Z,70.00
2019-03-29T06:59:34.610Z,69.66
2019-03-29T07:00:28.416Z,69.59
2019-03-29T07:01:22.040Z,69.66
2019-03-29T07:02:15.551Z,69.57
2019-03-29T07:03:09.348Z,69.57
2019-03-29T07:04:02.876Z,69.83
2019-03-29T07:04:56.359Z,69.65
2019-03-29T07:05:50.237Z,69.05
2019-03-29T07:06:43.999Z,68.71
2019-03-29T07:07:39.080Z,68.45
2019-03-29T07:08:32.349Z,68.45
2019-03-29T07:09:25.771Z,68.30
2019-03-29T07:10:19.953Z,68.30
2019-03-29T07:11:17.542Z,68.93
2019-03-29T07:12:09.124Z,68.74
2019-03-29T07:13:02.738Z,68.74
2019-03-29T07:13:57.839Z,68.95
2019-03-29T07:14:51.617Z,68.55
2019-03-29T07:15:45.001Z,68.29
2019-03-29T07:16:39.499Z,68.29
2019-03-29T07:17:33.191Z,68.10
2019-03-29T07:18:26.494Z,67.73
2019-03-29T07:19:20.442Z,68.08
2019-03-29T07:20:14.158Z,68.08
2019-03-29T07:21:20.808Z,68.84
2019-03-29T07:22:02.954Z,68.84
2019-03-29T07:22:56.643Z,68.28
2019-03-29T07:23:50.472Z,68.28
2019-03-29T07:24:45.052Z,67.61
2019-03-29T07:25:38.318Z,67.64
2019-03-29T07:26:32.047Z,67.75
2019-03-29T07:27:25.585Z,67.32
2019-03-29T07:28:19.092Z,67.49
2019-03-29T07:29:13.102Z,67.55
2019-03-29T07:30:07.403Z,67.55
2019-03-29T07:31:01.441Z,67.16
2019-03-29T07:31:55.214Z,66.73
2019-03-29T07:32:49.290Z,66.97
2019-03-29T07:33:42.946Z,67.08
2019-03-29T07:34:36.662Z,66.67
2019-03-29T07:35:30.237Z,66.47
2019-03-29T07:36:23.939Z,66.65
2019-03-29T07:37:18.040Z,66.79
2019-03-29T07:38:12.187Z,66.47
2019-03-29T07:39:07.048Z,66.16
2019-03-29T07:40:00.387Z,66.08
2019-03-29T07:40:54.385Z,66.06
2019-03-29T07:41:48.016Z,66.02
2019-03-29T07:42:42.473Z,65.95
2019-03-29T07:43:36.261Z,66.03
2019-03-29T07:44:29.548Z,66.10
2019-03-29T07:45:23.126Z,66.41
2019-03-29T07:46:17.287Z,66.41
2019-03-29T07:47:10.793Z,66.20
2019-03-29T07:48:04.554Z,65.72
2019-03-29T07:48:57.891Z,65.72
2019-03-29T07:49:52.087Z,65.47
2019-03-29T07:50:45.522Z,65.35
2019-03-29T07:51:39.354Z,65.21
2019-03-29T07:52:33.504Z,65.21
2019-03-29T07:53:26.920Z,64.90
2019-03-29T07:54:20.796Z,65.03
2019-03-29T07:55:14.953Z,64.85
2019-03-29T07:56:09.150Z,64.71
2019-03-29T07:57:03.416Z,64.79
2019-03-29T07:57:57.050Z,65.08
2019-03-29T07:58:50.922Z,65.13
2019-03-29T07:59:44.975Z,64.37
2019-03-29T08:00:39.946Z,64.82
2019-03-29T08:01:35.739Z,64.73
2019-03-29T08:02:30.187Z,64.39
2019-03-29T08:03:23.985Z,64.23
2019-03-29T08:04:21.354Z,63.80
2019-03-29T08:05:13.828Z,63.49
2019-03-29T08:06:07.408Z,63.57
2019-03-29T08:07:00.939Z,63.59
2019-03-29T08:07:54.398Z,63.57
2019-03-29T08:08:48.582Z,63.19
2019-03-29T08:09:42.333Z,63.15
2019-03-29T08:10:36.111Z,63.07
2019-03-29T08:11:30.084Z,62.79
2019-03-29T08:12:24.040Z,62.68
2019-03-29T08:13:17.113Z,62.60
2019-03-29T08:14:14.792Z,62.47
2019-03-29T08:15:09.531Z,62.01
2019-03-29T08:16:02.683Z,61.87
2019-03-29T08:16:56.250Z,62.03
2019-03-29T08:17:50.268Z,61.81
2019-03-29T08:18:44.217Z,62.00
2019-03-29T08:19:38.877Z,61.81
2019-03-29T08:20:43.845Z,61.43
2019-03-29T08:21:28.108Z,61.01
2019-03-29T08:22:21.684Z,61.01
2019-03-29T08:23:15.327Z,60.97
2019-03-29T08:24:09.602Z,60.97
2019-03-29T08:25:03.245Z,61.39
2019-03-29T08:25:57.414Z,61.18
2019-03-29T08:26:51.561Z,61.18
2019-03-29T08:27:45.242Z,60.79
2019-03-29T08:28:38.982Z,60.57
2019-03-29T08:29:32.631Z,60.56
2019-03-29T08:30:27.263Z,60.76
2019-03-29T08:31:20.716Z,60.82
2019-03-29T08:32:14.433Z,60.63
2019-03-29T08:33:07.973Z,60.69
2019-03-29T08:34:01.901Z,60.62
2019-03-29T08:34:56.085Z,60.60
2019-03-29T08:35:50.943Z,60.14
2019-03-29T08:36:44.825Z,60.08
2019-03-29T08:37:39.443Z,60.22
2019-03-29T08:38:33.109Z,60.01
2019-03-29T08:39:28.498Z,59.58
2019-03-29T08:40:22.415Z,59.58
2019-03-29T08:41:16.261Z,59.08
2019-03-29T08:42:10.239Z,59.08
2019-03-29T08:43:03.653Z,59.14
2019-03-29T08:43:58.304Z,58.86
2019-03-29T08:44:52.035Z,58.89
2019-03-29T08:45:46.288Z,58.89
2019-03-29T08:46:40.241Z,58.36
2019-03-29T08:47:33.626Z,58.83
2019-03-29T08:48:27.227Z,58.83
2019-03-29T08:49:21.569Z,58.31
2019-03-29T08:50:15.833Z,58.19
2019-03-29T08:51:09.988Z,57.56
2019-03-29T08:52:03.834Z,58.41
2019-03-29T08:52:57.412Z,58.41
2019-03-29T08:53:50.751Z,58.17
2019-03-29T08:54:44.611Z,57.68
2019-03-29T08:55:45.772Z,57.18
2019-03-29T08:56:34.177Z,56.71
2019-03-29T08:57:29.000Z,56.16
2019-03-29T08:58:22.884Z,56.23
2019-03-29T08:59:17.643Z,56.23
2019-03-29T09:00:11.583Z,56.12
2019-03-29T09:01:05.719Z,55.97
2019-03-29T09:01:59.735Z,55.50
2019-03-29T09:02:53.735Z,55.22
2019-03-29T09:04:02.812Z,55.21
2019-03-29T09:04:44.192Z,54.60
2019-03-29T09:05:39.265Z,54.55
2019-03-29T09:06:34.197Z,53.87
2019-03-29T09:07:28.214Z,53.87
2019-03-29T09:08:22.189Z,54.01
2019-03-29T09:09:15.876Z,53.36
2019-03-29T09:10:22.746Z,53.85
2019-03-29T09:11:16.388Z,53.93
2019-03-29T09:12:14.634Z,53.91
2019-03-29T09:13:06.061Z,53.05
2019-03-29T09:13:59.792Z,52.84
2019-03-29T09:14:53.810Z,52.77
2019-03-29T09:15:48.021Z,52.91
2019-03-29T09:16:41.996Z,52.76
2019-03-29T09:17:35.856Z,52.47
2019-03-29T09:18:29.394Z,52.25
2019-03-29T09:19:23.259Z,52.07
2019-03-29T09:20:16.595Z,52.10
2019-03-29T09:21:10.833Z,52.01
2019-03-29T09:22:04.596Z,51.85
2019-03-29T09:22:58.416Z,51.59
2019-03-29T09:23:52.693Z,51.05
2019-03-29T09:24:47.240Z,51.05
2019-03-29T09:25:41.615Z,51.04
2019-03-29T09:26:35.089Z,50.33
2019-03-29T09:27:31.730Z,50.05
2019-03-29T09:28:23.847Z,49.88
2019-03-29T09:29:17.480Z,49.76
2019-03-29T09:30:11.691Z,49.51
2019-03-29T09:31:05.287Z,49.51
2019-03-29T09:31:59.533Z,49.90
2019-03-29T09:32:54.748Z,49.47
2019-03-29T09:33:49.418Z,49.15
2019-03-29T09:34:43.094Z,49.42
2019-03-29T09:35:36.171Z,49.23
2019-03-29T09:36:30.378Z,48.86
2019-03-29T09:37:06.952Z,48.55
2019-03-29T09:37:43.292Z,48.12
2019-03-29T09:38:20.201Z,47.82
2019-03-29T09:38:56.759Z,47.06
2019-03-29T09:39:33.315Z,46.72
2019-03-29T09:40:09.787Z,46.31
2019-03-29T09:40:56.164Z,45.98
2019-03-29T09:41:23.456Z,45.94